createdAt,value
2022-11-17T00:00:38.715Z,0.87
2022-11-17T00:03:05.175Z,0.90
2022-11-17T00:05:31.647Z,1.10
2022-11-17T00:07:58.225Z,0.97
2022-11-17T00:10:24.687Z,1.00
2022-11-17T00:13:10.069Z,0.83
2022-11-17T00:15:36.549Z,0.87
2022-11-17T00:18:21.514Z,0.70
2022-11-17T00:21:06.349Z,0.70
2022-11-17T00:23:48.076Z,0.90
2022-11-17T00:26:18.497Z,0.97
2022-11-17T00:28:45.262Z,0.87
2022-11-17T00:31:31.727Z,1.00
2022-11-17T00:34:07.308Z,0.87
2022-11-17T00:36:37.680Z,1.00
2022-11-17T00:39:05.242Z,0.97
2022-11-17T00:41:31.787Z,1.10
2022-11-17T00:43:58.414Z,0.90
2022-11-17T00:46:24.913Z,0.80
2022-11-17T00:48:51.397Z,0.73
2022-11-17T00:51:18.559Z,0.90
2022-11-17T00:53:45.049Z,0.87
2022-11-17T00:56:11.840Z,0.97
2022-11-17T00:58:38.313Z,0.90
2022-11-17T01:01:05.650Z,0.80
2022-11-17T01:03:34.688Z,0.70
2022-11-17T01:06:10.013Z,0.90
2022-11-17T01:08:36.787Z,0.93
2022-11-17T01:11:11.909Z,1.10
2022-11-17T01:13:39.893Z,0.90
2022-11-17T01:16:13.531Z,0.73
2022-11-17T01:18:41.228Z,1.10
2022-11-17T01:21:11.845Z,1.33
2022-11-17T01:23:41.495Z,0.90
2022-11-17T01:26:12.298Z,0.90
2022-11-17T01:28:39.478Z,0.80
2022-11-17T01:31:18.332Z,0.97
2022-11-17T01:33:45.456Z,0.70
2022-11-17T01:36:15.696Z,0.80
2022-11-17T01:38:42.885Z,0.80
2022-11-17T01:41:15.592Z,0.70
2022-11-17T01:43:48.552Z,0.80
2022-11-17T01:46:38.513Z,1.00
2022-11-17T01:49:15.908Z,0.80
2022-11-17T01:51:49.404Z,0.70
2022-11-17T01:54:21.270Z,0.80
2022-11-17T01:56:53.051Z,0.73
2022-11-17T01:59:40.173Z,0.80
2022-11-17T02:02:07.353Z,0.90
2022-11-17T02:04:49.573Z,0.60
2022-11-17T02:07:28.192Z,0.67
2022-11-17T02:09:56.166Z,0.80
2022-11-17T02:12:25.868Z,0.50
2022-11-17T02:14:53.603Z,0.63
2022-11-17T02:17:22.860Z,0.93
2022-11-17T02:20:12.427Z,0.70
2022-11-17T02:23:22.475Z,0.70
2022-11-17T02:26:00.509Z,0.60
2022-11-17T02:28:37.384Z,0.63
2022-11-17T02:31:22.641Z,0.70
2022-11-17T02:34:00.870Z,0.87
2022-11-17T02:36:35.459Z,0.57
2022-11-17T02:39:12.423Z,0.73
2022-11-17T02:41:55.807Z,0.60
2022-11-17T02:44:49.140Z,0.60
2022-11-17T02:47:20.980Z,0.80
2022-11-17T02:50:03.180Z,0.70
2022-11-17T02:52:30.771Z,0.60
2022-11-17T02:55:01.620Z,0.60
2022-11-17T02:57:32.708Z,0.57
2022-11-17T03:00:11.040Z,0.70
2022-11-17T03:02:46.520Z,0.80
2022-11-17T03:05:33.207Z,0.70
2022-11-17T03:08:05.617Z,0.70
2022-11-17T03:10:49.330Z,0.77
2022-11-17T03:13:26.322Z,0.83
2022-11-17T03:16:08.139Z,0.70
2022-11-17T03:18:55.790Z,0.87
2022-11-17T03:21:36.653Z,0.80
2022-11-17T03:24:12.550Z,0.80
2022-11-17T03:26:43.594Z,1.10
2022-11-17T03:29:14.668Z,0.70
2022-11-17T03:31:45.461Z,0.90
2022-11-17T03:34:16.256Z,0.70
2022-11-17T03:36:48.376Z,0.80
2022-11-17T03:39:26.741Z,0.87
2022-11-17T03:41:59.932Z,0.90
2022-11-17T03:44:30.367Z,0.60
2022-11-17T03:47:02.210Z,0.70
2022-11-17T03:49:31.736Z,0.73
2022-11-17T03:51:58.499Z,0.80
2022-11-17T03:54:25.166Z,0.73
2022-11-17T03:57:16.497Z,0.70
2022-11-17T03:59:55.328Z,0.73
2022-11-17T04:02:23.735Z,0.80
2022-11-17T04:05:05.745Z,0.70
2022-11-17T04:07:38.040Z,0.90
2022-11-17T04:10:05.400Z,0.90
2022-11-17T04:12:50.458Z,0.77
2022-11-17T04:15:35.890Z,0.80
2022-11-17T04:18:03.072Z,0.80
2022-11-17T04:20:35.863Z,0.90
2022-11-17T04:23:09.481Z,1.00
2022-11-17T04:25:56.711Z,1.00
2022-11-17T04:28:39.588Z,0.90
2022-11-17T04:31:13.208Z,1.10
2022-11-17T04:33:48.392Z,0.83
2022-11-17T04:36:17.886Z,0.90
2022-11-17T04:38:46.619Z,1.10
2022-11-17T04:41:33.728Z,0.90
2022-11-17T04:44:01.517Z,1.00
2022-11-17T04:46:30.387Z,1.10
2022-11-17T04:48:58.042Z,1.00
2022-11-17T04:51:25.514Z,0.90
2022-11-17T04:53:52.352Z,0.83
2022-11-17T04:56:20.419Z,0.90
2022-11-17T04:58:47.928Z,0.90
2022-11-17T05:01:16.500Z,0.90
2022-11-17T05:03:54.306Z,1.00
2022-11-17T05:06:34.125Z,1.10
2022-11-17T05:09:03.896Z,0.80
2022-11-17T05:11:48.998Z,1.03
2022-11-17T05:14:18.223Z,1.30
2022-11-17T05:17:08.975Z,0.90
2022-11-17T05:19:42.265Z,1.00
2022-11-17T05:22:27.965Z,1.00
2022-11-17T05:24:54.784Z,0.87
2022-11-17T05:27:22.478Z,1.00
2022-11-17T05:29:49.209Z,1.00
2022-11-17T05:32:16.142Z,0.90
2022-11-17T05:34:42.672Z,0.90
2022-11-17T05:37:09.136Z,0.70
2022-11-17T05:39:35.606Z,0.90
2022-11-17T05:42:02.087Z,0.73
2022-11-17T05:44:28.568Z,0.67
2022-11-17T05:46:55.008Z,0.67
2022-11-17T05:49:21.652Z,0.70
2022-11-17T05:51:52.487Z,0.90
2022-11-17T05:54:19.535Z,0.77
2022-11-17T05:57:19.751Z,0.63
2022-11-17T05:59:51.572Z,0.60
2022-11-17T06:02:23.521Z,0.60
2022-11-17T06:04:51.373Z,0.60
2022-11-17T06:07:18.590Z,0.60
2022-11-17T06:09:46.184Z,0.70
2022-11-17T06:12:12.881Z,0.70
2022-11-17T06:14:39.766Z,0.80
2022-11-17T06:17:12.817Z,0.60
2022-11-17T06:19:47.121Z,0.60
2022-11-17T06:22:13.926Z,0.50
2022-11-17T06:24:45.678Z,0.60
2022-11-17T06:27:15.557Z,0.70
2022-11-17T06:29:44.873Z,0.60
2022-11-17T06:32:15.510Z,0.80
2022-11-17T06:34:46.109Z,0.83
2022-11-17T06:37:14.464Z,0.70
2022-11-17T06:39:40.909Z,0.80
2022-11-17T06:42:07.365Z,1.07
2022-11-17T06:44:33.836Z,0.90
2022-11-17T06:47:00.352Z,1.00
2022-11-17T06:49:26.953Z,0.77
2022-11-17T06:51:53.629Z,0.90
2022-11-17T06:54:20.100Z,1.13
2022-11-17T06:56:46.794Z,0.90
2022-11-17T06:59:15.319Z,0.80
2022-11-17T07:01:41.753Z,0.90
2022-11-17T07:04:08.859Z,1.10
2022-11-17T07:06:38.758Z,1.03
2022-11-17T07:09:05.378Z,0.87
2022-11-17T07:11:35.839Z,0.97
2022-11-17T07:14:02.907Z,1.10
2022-11-17T07:16:30.660Z,0.93
2022-11-17T07:18:59.178Z,1.30
2022-11-17T07:21:25.731Z,1.07
2022-11-17T07:23:52.379Z,1.30
2022-11-17T07:26:18.799Z,1.10
2022-11-17T07:28:45.280Z,1.00
2022-11-17T07:31:11.794Z,0.97
2022-11-17T07:33:38.280Z,1.20
2022-11-17T07:36:10.130Z,0.90
2022-11-17T07:38:39.551Z,0.90
2022-11-17T07:41:07.723Z,0.70
2022-11-17T07:43:35.346Z,0.90
2022-11-17T07:46:06.347Z,0.90
2022-11-17T07:48:33.202Z,0.50
2022-11-17T07:51:00.772Z,0.70
2022-11-17T07:53:27.815Z,0.50
2022-11-17T07:55:54.772Z,0.60
2022-11-17T07:58:21.338Z,0.60
2022-11-17T08:00:47.829Z,0.63
2022-11-17T08:03:14.421Z,0.50
2022-11-17T08:05:43.585Z,0.60
2022-11-17T08:08:10.426Z,0.90
2022-11-17T08:10:36.995Z,0.77
2022-11-17T08:13:03.944Z,0.77
2022-11-17T08:15:31.279Z,0.90
2022-11-17T08:17:59.999Z,0.80
2022-11-17T08:20:28.628Z,1.00
2022-11-17T08:22:56.048Z,1.00
2022-11-17T08:25:24.675Z,0.90
2022-11-17T08:27:55.333Z,0.87
2022-11-17T08:30:22.932Z,0.90
2022-11-17T08:32:52.201Z,1.10
2022-11-17T08:35:20.549Z,1.10
2022-11-17T08:37:47.342Z,1.00
2022-11-17T08:40:14.854Z,1.00
2022-11-17T08:42:41.656Z,1.50
2022-11-17T08:45:08.820Z,0.90
2022-11-17T08:47:35.294Z,1.50
2022-11-17T08:50:01.883Z,1.50
2022-11-17T08:52:29.003Z,1.30
2022-11-17T08:54:55.626Z,1.33
2022-11-17T08:57:22.507Z,1.20
2022-11-17T08:59:49.603Z,1.27
2022-11-17T09:02:16.883Z,1.27
2022-11-17T09:04:45.490Z,1.60
2022-11-17T09:07:12.074Z,1.63
2022-11-17T09:09:38.652Z,1.20
2022-11-17T09:12:05.416Z,1.40
2022-11-17T09:14:31.880Z,1.20
2022-11-17T09:16:58.333Z,1.10
2022-11-17T09:19:24.847Z,1.30
2022-11-17T09:21:51.376Z,1.60
2022-11-17T09:24:17.870Z,1.30
2022-11-17T09:26:44.568Z,1.13
2022-11-17T09:29:11.164Z,1.17
2022-11-17T09:31:37.822Z,1.13
2022-11-17T09:34:05.799Z,1.50
2022-11-17T09:36:33.360Z,1.00
2022-11-17T09:38:59.853Z,1.07
2022-11-17T09:41:47.425Z,1.00
2022-11-17T09:44:27.041Z,1.20
2022-11-17T09:47:00.735Z,1.87
2022-11-17T09:50:03.453Z,1.20
2022-11-17T09:52:43.399Z,1.20
2022-11-17T09:55:15.990Z,1.17
2022-11-17T09:57:47.034Z,1.10
2022-11-17T10:00:23.067Z,1.10
2022-11-17T10:02:51.172Z,1.20
2022-11-17T10:05:28.763Z,1.43
2022-11-17T10:08:03.434Z,1.50
2022-11-17T10:10:51.430Z,1.10
2022-11-17T10:13:28.246Z,1.40
2022-11-17T10:16:00.745Z,1.30
2022-11-17T10:18:32.506Z,1.53
2022-11-17T10:21:01.706Z,1.50
2022-11-17T10:23:41.284Z,1.23
2022-11-17T10:26:14.017Z,1.20
2022-11-17T10:28:40.931Z,1.43
2022-11-17T10:31:13.724Z,1.30
2022-11-17T10:33:49.563Z,1.20
2022-11-17T10:36:28.761Z,1.10
2022-11-17T10:38:57.591Z,1.10
2022-11-17T10:41:30.483Z,1.20
2022-11-17T10:43:59.919Z,1.10
2022-11-17T10:46:28.714Z,1.33
2022-11-17T10:49:03.159Z,1.10
2022-11-17T10:51:33.968Z,1.10
2022-11-17T10:54:03.474Z,0.90
2022-11-17T10:56:32.696Z,1.23
2022-11-17T10:59:07.885Z,1.07
2022-11-17T11:01:40.007Z,1.10
2022-11-17T11:04:25.757Z,1.00
2022-11-17T11:07:10.340Z,0.90
2022-11-17T11:09:45.326Z,1.20
2022-11-17T11:12:18.895Z,1.00
2022-11-17T11:14:52.590Z,1.50
2022-11-17T11:17:20.276Z,1.17
2022-11-17T11:19:52.264Z,1.20
2022-11-17T11:22:33.017Z,1.10
2022-11-17T11:25:29.796Z,1.10
2022-11-17T11:28:10.857Z,1.40
2022-11-17T11:31:04.941Z,1.47
2022-11-17T11:33:36.920Z,1.43
2022-11-17T11:36:48.359Z,1.63
2022-11-17T11:39:24.980Z,1.77
2022-11-17T11:42:10.272Z,2.13
2022-11-17T11:45:03.547Z,2.83
2022-11-17T11:47:57.183Z,2.33
2022-11-17T11:50:30.505Z,1.73
2022-11-17T11:53:09.483Z,1.40
2022-11-17T11:55:42.814Z,0.80
2022-11-17T11:58:23.415Z,0.60
2022-11-17T12:01:09.130Z,0.97
2022-11-17T12:03:50.083Z,0.70
2022-11-17T12:06:53.951Z,0.70
2022-11-17T12:09:48.758Z,0.70
2022-11-17T12:12:18.390Z,0.87
2022-11-17T12:15:09.056Z,0.80
2022-11-17T12:17:37.122Z,0.60
2022-11-17T12:20:46.901Z,0.67
2022-11-17T12:23:35.847Z,0.70
2022-11-17T12:26:02.948Z,1.00
2022-11-17T12:28:31.368Z,0.70
2022-11-17T12:31:05.123Z,1.00
2022-11-17T12:33:52.923Z,1.27
2022-11-17T12:36:32.488Z,2.13
2022-11-17T12:39:04.814Z,1.40
2022-11-17T12:41:49.792Z,1.80
2022-11-17T12:44:38.347Z,2.00
2022-11-17T12:47:18.845Z,1.60
2022-11-17T12:50:10.776Z,1.50
2022-11-17T12:53:05.002Z,2.13
2022-11-17T12:55:34.539Z,1.80
2022-11-17T12:58:34.470Z,1.30
2022-11-17T13:01:22.402Z,1.43
2022-11-17T13:04:08.375Z,1.17
2022-11-17T13:06:36.593Z,1.00
2022-11-17T13:09:12.378Z,1.10
2022-11-17T13:11:38.890Z,1.43
2022-11-17T13:14:16.940Z,1.20
2022-11-17T13:16:46.995Z,1.10
2022-11-17T13:19:33.509Z,1.03
2022-11-17T13:22:20.347Z,1.03
2022-11-17T13:24:49.646Z,1.43
2022-11-17T13:27:28.244Z,1.03
2022-11-17T13:30:13.914Z,1.30
2022-11-17T13:32:41.708Z,0.83
2022-11-17T13:35:28.435Z,0.83
2022-11-17T13:38:19.733Z,0.80
2022-11-17T13:40:47.699Z,0.80
2022-11-17T13:43:18.276Z,0.87
2022-11-17T13:45:45.777Z,1.10
2022-11-17T13:48:42.962Z,0.73
2022-11-17T13:51:24.869Z,0.70
2022-11-17T13:54:05.334Z,0.60
2022-11-17T13:56:34.389Z,0.93
2022-11-17T13:59:05.124Z,1.20
2022-11-17T14:01:33.037Z,0.70
2022-11-17T14:04:22.611Z,0.83
2022-11-17T14:06:57.616Z,0.60
2022-11-17T14:09:26.205Z,0.90
2022-11-17T14:11:52.882Z,1.07
2022-11-17T14:14:30.520Z,1.00
2022-11-17T14:16:58.034Z,0.90
2022-11-17T14:19:33.392Z,0.63
2022-11-17T14:22:27.694Z,0.77
2022-11-17T14:24:57.637Z,0.67
2022-11-17T14:27:27.111Z,0.70
2022-11-17T14:29:53.554Z,0.93
2022-11-17T14:32:19.981Z,0.77
2022-11-17T14:34:46.431Z,0.80
2022-11-17T14:37:12.940Z,0.90
2022-11-17T14:39:39.531Z,0.87
2022-11-17T14:42:05.962Z,0.90
2022-11-17T14:44:32.435Z,0.70
2022-11-17T14:46:58.872Z,0.77
2022-11-17T14:49:25.429Z,0.93
2022-11-17T14:51:53.073Z,0.93
2022-11-17T14:54:19.638Z,1.00
2022-11-17T14:56:46.098Z,0.80
2022-11-17T14:59:13.468Z,1.00
2022-11-17T15:01:41.026Z,0.67
2022-11-17T15:04:34.469Z,0.60
2022-11-17T15:06:54.089Z,0.50
2022-11-17T15:09:20.940Z,0.50
2022-11-17T15:11:48.096Z,0.50
2022-11-17T15:14:15.039Z,0.67
2022-11-17T15:16:41.776Z,1.27
2022-11-17T15:19:08.256Z,2.30
2022-11-17T15:21:34.806Z,4.00
2022-11-17T15:24:03.336Z,3.20
2022-11-17T15:26:29.862Z,2.33
2022-11-17T15:28:57.866Z,1.40
2022-11-17T15:31:24.362Z,1.53
2022-11-17T15:33:50.819Z,1.50
2022-11-17T15:36:19.380Z,1.30
2022-11-17T15:38:47.399Z,2.07
2022-11-17T15:41:15.064Z,1.00
2022-11-17T15:43:43.414Z,8.30
2022-11-17T15:46:15.374Z,1.10
2022-11-17T15:48:44.476Z,0.93
2022-11-17T15:51:13.666Z,1.97
2022-11-17T15:53:41.478Z,1.20
2022-11-17T15:56:11.366Z,1.03
2022-11-17T15:58:39.426Z,5.80
2022-11-17T16:01:33.349Z,1.77
2022-11-17T16:04:01.385Z,2.33
2022-11-17T16:06:29.146Z,1.77
2022-11-17T16:08:55.754Z,1.80
2022-11-17T16:11:22.565Z,3.83
2022-11-17T16:13:53.156Z,3.30
2022-11-17T16:16:20.361Z,1.10
2022-11-17T16:18:46.856Z,0.70
2022-11-17T16:21:14.704Z,0.60
2022-11-17T16:23:54.476Z,0.70
2022-11-17T16:26:22.185Z,2.03
2022-11-17T16:28:48.720Z,4.63
2022-11-17T16:31:27.035Z,2.40
2022-11-17T16:34:05.211Z,2.30
2022-11-17T16:36:36.749Z,1.60
2022-11-17T16:39:09.555Z,1.50
2022-11-17T16:41:38.768Z,2.20
2022-11-17T16:44:11.783Z,2.13
2022-11-17T16:46:41.017Z,1.90
2022-11-17T16:49:10.950Z,2.10
2022-11-17T16:51:37.848Z,1.80
2022-11-17T16:54:06.599Z,3.43
2022-11-17T16:56:34.084Z,6.10
2022-11-17T16:59:00.921Z,4.13
2022-11-17T17:01:30.466Z,4.80
2022-11-17T17:03:59.300Z,3.70
2022-11-17T17:06:26.254Z,4.53
2022-11-17T17:08:54.749Z,4.70
2022-11-17T17:11:21.752Z,4.20
2022-11-17T17:13:48.307Z,4.37
2022-11-17T17:16:18.097Z,4.80
2022-11-17T17:18:44.680Z,4.80
2022-11-17T17:21:17.568Z,4.47
2022-11-17T17:23:45.574Z,4.50
2022-11-17T17:26:16.572Z,4.00
2022-11-17T17:28:44.626Z,3.43
2022-11-17T17:31:16.778Z,3.10
2022-11-17T17:33:47.720Z,2.83
2022-11-17T17:36:16.306Z,3.73
2022-11-17T17:38:43.208Z,4.27
2022-11-17T17:41:15.332Z,4.60
2022-11-17T17:43:43.293Z,5.60
2022-11-17T17:46:16.886Z,5.83
2022-11-17T17:48:45.179Z,7.80
2022-11-17T17:51:17.597Z,7.43
2022-11-17T17:53:44.810Z,7.37
2022-11-17T17:56:13.541Z,7.97
2022-11-17T17:58:41.154Z,11.70
2022-11-17T18:01:33.104Z,8.83
2022-11-17T18:04:04.459Z,10.13
2022-11-17T18:06:38.518Z,7.97
2022-11-17T18:09:06.874Z,8.13
2022-11-17T18:11:34.061Z,10.40
2022-11-17T18:14:00.765Z,9.37
2022-11-17T18:16:29.862Z,11.37
2022-11-17T18:19:02.174Z,10.07
2022-11-17T18:21:29.926Z,8.90
2022-11-17T18:23:58.413Z,7.80
2022-11-17T18:26:27.749Z,7.23
2022-11-17T18:28:56.544Z,14.03
2022-11-17T18:31:25.541Z,16.07
2022-11-17T18:33:53.995Z,8.40
2022-11-17T18:36:21.675Z,6.13
2022-11-17T18:38:49.057Z,9.20
2022-11-17T18:41:16.992Z,14.80
2022-11-17T18:43:44.326Z,19.43
2022-11-17T18:46:13.766Z,22.30
2022-11-17T18:48:42.253Z,26.67
2022-11-17T18:51:21.377Z,26.53
2022-11-17T18:53:49.767Z,21.67
2022-11-17T18:56:19.491Z,29.67
2022-11-17T18:58:46.633Z,20.40
2022-11-17T19:01:22.232Z,12.90
2022-11-17T19:03:52.528Z,8.13
2022-11-17T19:06:20.597Z,8.17
2022-11-17T19:08:48.376Z,7.37
2022-11-17T19:11:17.141Z,8.23
2022-11-17T19:13:44.966Z,8.27
2022-11-17T19:16:17.356Z,8.07
2022-11-17T19:18:45.277Z,7.27
2022-11-17T19:21:19.216Z,6.27
2022-11-17T19:23:51.406Z,6.37
2022-11-17T19:26:24.886Z,6.80
2022-11-17T19:28:58.837Z,6.93
2022-11-17T19:31:26.477Z,6.80
2022-11-17T19:33:54.226Z,6.23
2022-11-17T19:36:31.803Z,5.87
2022-11-17T19:39:00.445Z,7.90
2022-11-17T19:41:27.059Z,6.80
2022-11-17T19:43:54.877Z,5.27
2022-11-17T19:46:22.765Z,5.80
2022-11-17T19:48:49.787Z,5.83
2022-11-17T19:51:16.477Z,5.23
2022-11-17T19:53:43.368Z,9.23
2022-11-17T19:56:10.237Z,28.97
2022-11-17T19:58:37.009Z,21.73
2022-11-17T20:01:22.337Z,16.17
2022-11-17T20:03:49.915Z,12.47
2022-11-17T20:06:19.137Z,8.63
2022-11-17T20:08:46.515Z,3.77
2022-11-17T20:11:16.600Z,2.80
2022-11-17T20:13:43.324Z,2.60
2022-11-17T20:16:21.439Z,1.67
2022-11-17T20:18:53.589Z,1.60
2022-11-17T20:21:20.526Z,1.83
2022-11-17T20:23:47.444Z,2.00
2022-11-17T20:26:20.559Z,2.50
2022-11-17T20:28:47.932Z,1.70
2022-11-17T20:31:24.387Z,2.40
2022-11-17T20:33:52.174Z,3.20
2022-11-17T20:36:20.942Z,4.60
2022-11-17T20:38:56.416Z,3.60
2022-11-17T20:41:23.608Z,2.30
2022-11-17T20:43:51.605Z,2.70
2022-11-17T20:46:18.633Z,2.33
2022-11-17T20:48:45.766Z,2.20
2022-11-17T20:51:16.217Z,2.13
2022-11-17T20:53:43.151Z,1.87
2022-11-17T20:56:12.124Z,1.73
2022-11-17T20:58:38.860Z,1.90
2022-11-17T21:01:14.541Z,1.40
2022-11-17T21:03:41.613Z,1.73
2022-11-17T21:06:08.937Z,1.70
2022-11-17T21:08:38.053Z,1.50
2022-11-17T21:11:07.682Z,1.90
2022-11-17T21:13:35.645Z,2.13
2022-11-17T21:16:15.536Z,1.53
2022-11-17T21:18:47.914Z,1.60
2022-11-17T21:21:46.150Z,1.77
2022-11-17T21:24:13.636Z,1.97
2022-11-17T21:26:40.348Z,1.83
2022-11-17T21:29:07.210Z,1.50
2022-11-17T21:31:34.906Z,1.70
2022-11-17T21:34:04.433Z,1.60
2022-11-17T21:36:32.608Z,1.37
2022-11-17T21:38:59.761Z,1.30
2022-11-17T21:41:29.619Z,1.00
2022-11-17T21:43:59.977Z,1.10
2022-11-17T21:46:29.305Z,1.00
2022-11-17T21:48:57.802Z,1.30
2022-11-17T21:51:33.074Z,1.20
2022-11-17T21:54:01.855Z,1.53
2022-11-17T21:56:29.399Z,3.70
2022-11-17T21:58:57.354Z,2.70
2022-11-17T22:01:24.369Z,3.23
2022-11-17T22:03:51.440Z,4.33
2022-11-17T22:06:20.392Z,4.60
2022-11-17T22:08:48.059Z,4.57
2022-11-17T22:11:34.819Z,6.47
2022-11-17T22:14:16.518Z,8.70
2022-11-17T22:16:52.064Z,9.00
2022-11-17T22:19:20.698Z,8.77
2022-11-17T22:21:49.664Z,8.00
2022-11-17T22:24:16.286Z,6.80
2022-11-17T22:26:43.974Z,6.23
2022-11-17T22:29:17.070Z,6.60
2022-11-17T22:31:45.165Z,6.23
2022-11-17T22:34:12.984Z,5.40
2022-11-17T22:36:40.044Z,5.00
2022-11-17T22:39:07.475Z,4.90
2022-11-17T22:41:34.935Z,4.20
2022-11-17T22:44:01.471Z,3.20
2022-11-17T22:46:28.692Z,3.60
2022-11-17T22:48:55.940Z,3.43
2022-11-17T22:51:41.109Z,3.57
2022-11-17T22:54:08.507Z,3.90
2022-11-17T22:56:35.938Z,5.60
2022-11-17T22:59:02.644Z,8.40
2022-11-17T23:01:29.200Z,7.97
2022-11-17T23:03:55.753Z,8.10
2022-11-17T23:06:22.985Z,7.83
2022-11-17T23:08:50.408Z,6.27
2022-11-17T23:14:06.757Z,5.80
2022-11-17T23:16:33.408Z,5.17
2022-11-17T23:19:00.340Z,3.87
2022-11-17T23:21:27.133Z,4.87
2022-11-17T23:23:53.762Z,5.53
2022-11-17T23:26:20.645Z,5.37
2022-11-17T23:28:47.345Z,5.47
2022-11-17T23:31:16.235Z,5.63
2022-11-17T23:33:45.363Z,5.70
2022-11-17T23:36:15.031Z,6.13
2022-11-17T23:38:42.344Z,5.17
2022-11-17T23:41:12.084Z,3.90
2022-11-17T23:43:39.588Z,4.33
2022-11-17T23:46:14.445Z,4.90
2022-11-17T23:48:41.931Z,5.20
2022-11-17T23:51:13.650Z,6.33
2022-11-17T23:53:40.851Z,6.60
2022-11-17T23:56:08.342Z,5.57
2022-11-17T23:58:34.941Z,5.70
